createdAt,value
2019-05-29T00:00:33.069Z,9.90
2019-05-29T00:03:02.081Z,9.90
2019-05-29T00:05:31.094Z,9.80
2019-05-29T00:08:00.096Z,9.80
2019-05-29T00:10:29.264Z,9.80
2019-05-29T00:12:58.287Z,9.80
2019-05-29T00:15:27.296Z,9.80
2019-05-29T00:17:56.230Z,9.80
2019-05-29T00:20:25.222Z,9.80
2019-05-29T00:22:54.406Z,9.80
2019-05-29T00:25:23.418Z,9.80
2019-05-29T00:27:52.413Z,9.80
2019-05-29T00:30:21.763Z,9.80
2019-05-29T00:32:50.741Z,9.80
2019-05-29T00:35:19.736Z,9.80
2019-05-29T00:37:48.739Z,9.80
2019-05-29T00:40:17.865Z,9.80
2019-05-29T00:42:46.991Z,9.80
2019-05-29T00:45:16.191Z,9.80
2019-05-29T00:47:45.046Z,9.80
2019-05-29T00:50:14.641Z,9.80
2019-05-29T00:52:43.976Z,9.80
2019-05-29T00:55:14.573Z,9.80
2019-05-29T00:57:43.880Z,9.80
2019-05-29T01:00:13.297Z,9.80
2019-05-29T01:02:42.429Z,9.70
2019-05-29T01:05:12.035Z,9.70
2019-05-29T01:07:41.343Z,9.70
2019-05-29T01:10:10.654Z,9.70
2019-05-29T01:12:39.720Z,9.70
2019-05-29T01:15:09.257Z,9.60
2019-05-29T01:17:38.287Z,9.60
2019-05-29T01:20:08.182Z,9.60
2019-05-29T01:22:37.349Z,9.60
2019-05-29T01:25:07.113Z,9.60
2019-05-29T01:27:36.132Z,9.60
2019-05-29T01:30:05.461Z,9.60
2019-05-29T01:32:34.448Z,9.60
2019-05-29T01:35:03.475Z,9.50
2019-05-29T01:37:32.384Z,9.40
2019-05-29T01:40:16.634Z,9.50
2019-05-29T01:42:32.720Z,9.40
2019-05-29T01:45:07.937Z,9.40
2019-05-29T01:47:32.616Z,9.40
2019-05-29T01:50:01.621Z,9.40
2019-05-29T01:52:30.560Z,9.40
2019-05-29T01:54:59.516Z,9.40
2019-05-29T01:57:28.821Z,9.40
2019-05-29T01:59:57.768Z,9.40
2019-05-29T02:02:26.713Z,9.40
2019-05-29T02:04:56.085Z,9.40
2019-05-29T02:07:25.109Z,9.40
2019-05-29T02:09:54.162Z,9.40
2019-05-29T02:12:24.450Z,9.40
2019-05-29T02:14:53.780Z,9.40
2019-05-29T02:17:23.834Z,9.40
2019-05-29T02:19:53.022Z,9.40
2019-05-29T02:22:23.039Z,9.40
2019-05-29T02:24:52.205Z,9.40
2019-05-29T02:27:21.428Z,9.40
2019-05-29T02:29:50.586Z,9.40
2019-05-29T02:32:19.703Z,9.40
2019-05-29T02:34:49.073Z,9.40
2019-05-29T02:37:18.298Z,9.40
2019-05-29T02:39:47.703Z,9.40
2019-05-29T02:42:16.719Z,9.40
2019-05-29T02:44:45.737Z,9.40
2019-05-29T02:47:14.660Z,9.40
2019-05-29T02:49:43.602Z,9.40
2019-05-29T02:52:12.611Z,9.40
2019-05-29T02:54:41.875Z,9.40
2019-05-29T02:57:11.149Z,9.30
2019-05-29T02:59:40.067Z,9.30
2019-05-29T03:02:09.772Z,9.30
2019-05-29T03:04:39.174Z,9.30
2019-05-29T03:07:08.378Z,9.20
2019-05-29T03:09:37.472Z,9.30
2019-05-29T03:12:06.505Z,9.30
2019-05-29T03:14:36.894Z,9.30
2019-05-29T03:17:05.908Z,9.30
2019-05-29T03:19:35.051Z,9.30
2019-05-29T03:22:04.202Z,9.30
2019-05-29T03:24:34.917Z,9.30
2019-05-29T03:27:03.857Z,9.30
2019-05-29T03:29:34.270Z,9.30
2019-05-29T03:32:03.346Z,9.30
2019-05-29T03:34:39.459Z,9.30
2019-05-29T03:37:02.929Z,9.30
2019-05-29T03:39:32.324Z,9.30
2019-05-29T03:42:01.442Z,9.30
2019-05-29T03:44:30.713Z,9.30
2019-05-29T03:47:00.092Z,9.30
2019-05-29T03:49:30.981Z,9.30
2019-05-29T03:52:00.225Z,9.30
2019-05-29T03:54:30.740Z,9.40
2019-05-29T03:56:59.929Z,9.30
2019-05-29T03:59:30.542Z,9.40
2019-05-29T04:02:00.000Z,9.40
2019-05-29T04:04:29.073Z,9.40
2019-05-29T04:06:58.010Z,9.50
2019-05-29T04:09:27.261Z,9.50
2019-05-29T04:11:56.802Z,9.50
2019-05-29T04:14:27.326Z,9.50
2019-05-29T04:17:00.252Z,9.60
2019-05-29T04:19:30.533Z,9.60
2019-05-29T04:22:05.675Z,9.60
2019-05-29T04:24:39.361Z,9.60
2019-05-29T04:27:12.369Z,9.70
2019-05-29T04:29:43.107Z,9.70
2019-05-29T04:32:12.470Z,9.70
2019-05-29T04:34:41.393Z,9.70
2019-05-29T04:37:10.405Z,9.70
2019-05-29T04:39:39.753Z,9.80
2019-05-29T04:42:08.701Z,9.80
2019-05-29T04:44:38.969Z,9.90
2019-05-29T04:47:11.632Z,9.90
2019-05-29T04:49:39.872Z,10.00
2019-05-29T04:52:09.121Z,10.00
2019-05-29T04:54:40.025Z,10.00
2019-05-29T04:57:08.781Z,10.10
2019-05-29T04:59:39.178Z,10.20
2019-05-29T05:02:08.267Z,10.30
2019-05-29T05:04:37.559Z,10.40
2019-05-29T05:07:06.485Z,10.40
2019-05-29T05:09:35.524Z,10.50
2019-05-29T05:12:04.544Z,10.60
2019-05-29T05:14:33.702Z,10.60
2019-05-29T05:17:02.785Z,10.80
2019-05-29T05:19:32.126Z,10.80
2019-05-29T05:22:01.113Z,10.80
2019-05-29T05:24:30.187Z,11.00
2019-05-29T05:26:59.446Z,11.00
2019-05-29T05:29:28.656Z,11.10
2019-05-29T05:31:57.644Z,11.20
2019-05-29T05:34:26.581Z,11.40
2019-05-29T05:36:55.593Z,11.50
2019-05-29T05:39:24.575Z,11.60
2019-05-29T05:41:53.616Z,11.70
2019-05-29T05:44:22.884Z,11.80
2019-05-29T05:46:51.876Z,11.80
2019-05-29T05:49:20.887Z,11.70
2019-05-29T05:51:50.168Z,11.70
2019-05-29T05:54:19.508Z,11.80
2019-05-29T05:56:48.681Z,11.90
2019-05-29T05:59:17.685Z,11.90
2019-05-29T06:01:46.616Z,12.10
2019-05-29T06:04:15.621Z,12.10
2019-05-29T06:06:44.632Z,12.10
2019-05-29T06:09:13.972Z,12.10
2019-05-29T06:11:42.960Z,12.10
2019-05-29T06:14:12.164Z,12.10
2019-05-29T06:16:41.183Z,12.20
2019-05-29T06:19:10.222Z,12.30
2019-05-29T06:21:39.267Z,12.30
2019-05-29T06:24:08.281Z,12.50
2019-05-29T06:26:38.877Z,12.60
2019-05-29T06:29:07.988Z,12.70
2019-05-29T06:31:37.360Z,12.70
2019-05-29T06:34:06.422Z,12.70
2019-05-29T06:36:35.519Z,12.90
2019-05-29T06:39:06.855Z,13.00
2019-05-29T06:41:35.853Z,13.10
2019-05-29T06:44:04.836Z,13.20
2019-05-29T06:46:34.348Z,13.50
2019-05-29T06:49:03.471Z,13.60
2019-05-29T06:51:32.408Z,13.60
2019-05-29T06:54:01.888Z,13.70
2019-05-29T06:56:31.160Z,13.80
2019-05-29T06:59:00.026Z,13.60
2019-05-29T07:01:29.351Z,13.30
2019-05-29T07:04:11.208Z,13.40
2019-05-29T07:06:29.356Z,13.50
2019-05-29T07:08:58.280Z,13.60
2019-05-29T07:11:27.209Z,13.60
2019-05-29T07:13:56.227Z,13.40
2019-05-29T07:16:42.886Z,13.30
2019-05-29T07:19:24.001Z,13.20
2019-05-29T07:21:26.636Z,13.30
2019-05-29T07:23:55.542Z,13.40
2019-05-29T07:26:24.468Z,13.40
2019-05-29T07:29:07.546Z,13.50
2019-05-29T07:31:24.042Z,13.50
2019-05-29T07:33:53.037Z,13.60
2019-05-29T07:36:22.345Z,13.60
2019-05-29T07:39:02.823Z,13.70
2019-05-29T07:41:22.379Z,13.60
2019-05-29T07:43:52.149Z,13.60
2019-05-29T07:46:21.360Z,13.50
2019-05-29T07:48:50.659Z,13.60
2019-05-29T07:51:19.744Z,13.70
2019-05-29T07:53:49.066Z,13.80
2019-05-29T07:56:22.650Z,14.00
2019-05-29T07:59:01.058Z,13.90
2019-05-29T08:01:19.545Z,13.80
2019-05-29T08:03:49.721Z,13.80
2019-05-29T08:06:18.772Z,13.90
2019-05-29T08:08:47.714Z,14.00
2019-05-29T08:11:16.708Z,14.00
2019-05-29T08:13:45.895Z,14.30
2019-05-29T08:16:14.745Z,14.40
2019-05-29T08:18:46.176Z,14.60
2019-05-29T08:21:14.508Z,14.50
2019-05-29T08:23:44.353Z,14.50
2019-05-29T08:26:13.490Z,14.50
2019-05-29T08:28:42.806Z,14.50
2019-05-29T08:31:12.221Z,14.50
2019-05-29T08:33:41.206Z,14.70
2019-05-29T08:36:10.493Z,14.70
2019-05-29T08:38:39.357Z,14.70
2019-05-29T08:41:08.436Z,14.40
2019-05-29T08:43:37.360Z,14.40
2019-05-29T08:46:06.369Z,14.50
2019-05-29T08:48:35.680Z,14.30
2019-05-29T08:51:04.757Z,14.20
2019-05-29T08:53:33.775Z,14.10
2019-05-29T08:56:02.836Z,14.10
2019-05-29T08:58:31.840Z,14.10
2019-05-29T09:01:00.829Z,14.30
2019-05-29T09:03:29.843Z,14.50
2019-05-29T09:06:08.391Z,14.70
2019-05-29T09:08:29.562Z,14.60
2019-05-29T09:10:58.486Z,14.60
2019-05-29T09:13:27.784Z,14.60
2019-05-29T09:15:56.704Z,14.50
2019-05-29T09:18:25.993Z,14.20
2019-05-29T09:21:03.464Z,14.10
2019-05-29T09:23:25.673Z,13.90
2019-05-29T09:25:54.597Z,13.70
2019-05-29T09:28:22.237Z,13.70
2019-05-29T09:30:51.732Z,13.80
2019-05-29T09:33:22.011Z,14.00
2019-05-29T09:35:52.705Z,14.10
2019-05-29T09:38:22.919Z,14.30
2019-05-29T09:40:52.977Z,14.60
2019-05-29T09:43:27.031Z,14.80
2019-05-29T09:45:52.816Z,15.10
2019-05-29T09:48:26.445Z,15.40
2019-05-29T09:50:52.969Z,15.60
2019-05-29T09:53:21.982Z,15.90
2019-05-29T09:55:52.050Z,16.00
2019-05-29T09:58:21.896Z,16.30
2019-05-29T10:01:09.692Z,16.50
2019-05-29T10:03:21.805Z,16.70
2019-05-29T10:05:51.126Z,16.80
2019-05-29T10:08:20.138Z,16.90
2019-05-29T10:10:49.147Z,16.80
2019-05-29T10:13:18.232Z,16.80
2019-05-29T10:15:47.232Z,16.80
2019-05-29T10:18:35.409Z,16.70
2019-05-29T10:21:05.101Z,16.70
2019-05-29T10:23:34.229Z,16.60
2019-05-29T10:26:04.745Z,16.70
2019-05-29T10:28:50.438Z,17.00
2019-05-29T10:31:05.408Z,17.00
2019-05-29T10:33:34.493Z,17.20
2019-05-29T10:36:04.398Z,17.00
2019-05-29T10:38:33.771Z,17.00
2019-05-29T10:41:06.736Z,17.70
2019-05-29T10:43:35.008Z,17.50
2019-05-29T10:46:04.351Z,17.50
2019-05-29T10:48:33.520Z,17.40
2019-05-29T10:51:02.522Z,17.60
2019-05-29T10:53:44.318Z,17.60
2019-05-29T10:56:13.380Z,17.80
2019-05-29T10:58:49.601Z,17.50
2019-05-29T11:01:13.416Z,17.30
2019-05-29T11:03:42.349Z,16.70
2019-05-29T11:06:11.344Z,16.50
2019-05-29T11:08:40.346Z,16.70
2019-05-29T11:11:09.377Z,16.90
2019-05-29T11:13:38.405Z,17.00
2019-05-29T11:16:07.420Z,16.90
2019-05-29T11:18:36.356Z,17.00
2019-05-29T11:21:05.392Z,17.40
2019-05-29T11:23:34.421Z,17.50
2019-05-29T11:26:03.526Z,17.30
2019-05-29T11:28:52.670Z,16.90
2019-05-29T11:31:21.682Z,16.50
2019-05-29T11:33:51.181Z,16.20
2019-05-29T11:36:20.197Z,15.90
2019-05-29T11:38:50.408Z,15.60
2019-05-29T11:41:26.418Z,15.60
2019-05-29T11:43:50.681Z,15.80
2019-05-29T11:46:19.857Z,16.00
2019-05-29T11:48:48.871Z,16.30
2019-05-29T11:51:37.009Z,16.70
2019-05-29T11:54:06.125Z,17.30
2019-05-29T11:56:35.059Z,18.00
2019-05-29T11:59:04.175Z,18.20
2019-05-29T12:01:49.223Z,18.40
2019-05-29T12:04:22.617Z,18.70
2019-05-29T12:06:34.815Z,18.90
2019-05-29T12:09:05.498Z,18.90
2019-05-29T12:11:34.369Z,19.00
2019-05-29T12:14:03.386Z,18.80
2019-05-29T12:16:32.314Z,18.90
2019-05-29T12:19:01.950Z,18.60
2019-05-29T12:21:31.082Z,18.30
2019-05-29T12:24:00.358Z,18.70
2019-05-29T12:26:29.409Z,18.80
2019-05-29T12:29:04.898Z,18.60
2019-05-29T12:31:29.070Z,18.50
2019-05-29T12:34:04.659Z,18.50
2019-05-29T12:36:29.366Z,18.60
2019-05-29T12:38:59.623Z,18.50
2019-05-29T12:41:28.795Z,18.70
2019-05-29T12:44:17.225Z,18.80
2019-05-29T12:46:46.521Z,19.20
2019-05-29T12:49:15.522Z,19.80
2019-05-29T12:51:44.755Z,19.60
2019-05-29T12:54:13.776Z,19.50
2019-05-29T12:56:43.005Z,19.00
2019-05-29T12:59:12.033Z,18.50
2019-05-29T13:01:41.027Z,18.30
2019-05-29T13:04:10.303Z,18.10
2019-05-29T13:06:39.308Z,18.30
2019-05-29T13:09:09.050Z,18.60
2019-05-29T13:11:37.997Z,18.90
2019-05-29T13:14:06.996Z,18.90
2019-05-29T13:16:36.011Z,18.90
2019-05-29T13:19:05.512Z,18.90
2019-05-29T13:21:34.532Z,18.70
2019-05-29T13:24:08.023Z,18.10
2019-05-29T13:26:34.612Z,17.70
2019-05-29T13:29:04.290Z,17.30
2019-05-29T13:31:33.384Z,17.00
2019-05-29T13:34:02.325Z,16.60
2019-05-29T13:36:31.553Z,16.30
2019-05-29T13:39:00.525Z,16.20
2019-05-29T13:41:29.516Z,15.80
2019-05-29T13:43:58.555Z,15.90
2019-05-29T13:46:27.697Z,16.20
2019-05-29T13:48:56.829Z,16.60
2019-05-29T13:51:25.883Z,16.40
2019-05-29T13:54:03.627Z,16.30
2019-05-29T13:56:25.833Z,16.50
2019-05-29T13:58:54.872Z,16.40
2019-05-29T14:01:23.863Z,16.20
2019-05-29T14:03:52.813Z,16.20
2019-05-29T14:06:21.869Z,16.30
2019-05-29T14:08:50.907Z,16.00
2019-05-29T14:11:20.029Z,15.70
2019-05-29T14:13:49.040Z,15.40
2019-05-29T14:16:18.044Z,15.30
2019-05-29T14:18:47.072Z,15.10
2019-05-29T14:21:16.069Z,15.00
2019-05-29T14:23:45.073Z,14.90
2019-05-29T14:26:14.112Z,14.90
2019-05-29T14:28:43.349Z,14.80
2019-05-29T14:31:12.369Z,14.70
2019-05-29T14:33:41.565Z,14.70
2019-05-29T14:36:11.448Z,14.70
2019-05-29T14:38:40.657Z,14.70
2019-05-29T14:41:09.946Z,14.70
2019-05-29T14:43:39.074Z,14.80
2019-05-29T14:46:08.221Z,14.80
2019-05-29T14:48:37.236Z,14.70
2019-05-29T14:51:06.588Z,14.80
2019-05-29T14:53:35.883Z,14.90
2019-05-29T14:56:05.094Z,14.80
2019-05-29T14:58:34.138Z,14.70
2019-05-29T15:01:03.186Z,14.60
2019-05-29T15:03:32.224Z,14.60
2019-05-29T15:06:01.177Z,14.40
2019-05-29T15:08:30.177Z,14.30
2019-05-29T15:10:59.112Z,14.30
2019-05-29T15:16:06.489Z,14.20
2019-05-29T15:18:35.602Z,14.10
2019-05-29T15:21:04.911Z,14.00
2019-05-29T15:23:34.245Z,14.00
2019-05-29T15:26:03.282Z,13.90
2019-05-29T15:28:32.281Z,13.80
2019-05-29T15:31:01.353Z,13.80
2019-05-29T15:33:30.282Z,13.70
2019-05-29T15:35:59.296Z,13.70
2019-05-29T15:38:29.013Z,13.80
2019-05-29T15:40:58.025Z,13.70
2019-05-29T15:43:26.896Z,13.80
2019-05-29T15:45:55.866Z,13.80
2019-05-29T15:48:24.823Z,13.80
2019-05-29T15:50:53.776Z,13.80
2019-05-29T15:53:22.782Z,13.90
2019-05-29T15:55:51.822Z,14.00
2019-05-29T15:58:20.847Z,14.10
2019-05-29T16:00:49.865Z,14.20
2019-05-29T16:03:18.953Z,14.20
2019-05-29T16:05:48.086Z,14.20
2019-05-29T16:08:18.173Z,14.00
2019-05-29T16:11:06.485Z,14.00
2019-05-29T16:13:35.486Z,14.00
2019-05-29T16:16:04.581Z,14.10
2019-05-29T16:18:33.685Z,14.10
2019-05-29T16:21:02.641Z,14.10
2019-05-29T16:23:35.880Z,14.00
2019-05-29T16:26:02.411Z,13.80
2019-05-29T16:28:31.360Z,13.80
2019-05-29T16:31:00.506Z,13.80
2019-05-29T16:33:29.545Z,13.80
2019-05-29T16:35:58.411Z,13.80
2019-05-29T16:38:27.330Z,13.80
2019-05-29T16:40:56.268Z,13.80
2019-05-29T16:43:25.205Z,13.90
2019-05-29T16:45:54.337Z,13.90
2019-05-29T16:48:23.345Z,13.90
2019-05-29T16:50:52.301Z,13.80
2019-05-29T16:53:21.264Z,13.80
2019-05-29T16:55:53.945Z,13.70
2019-05-29T16:58:21.328Z,13.80
2019-05-29T17:00:50.398Z,13.80
2019-05-29T17:03:19.724Z,13.80
2019-05-29T17:05:48.799Z,13.90
2019-05-29T17:08:18.130Z,13.90
2019-05-29T17:10:47.545Z,14.00
2019-05-29T17:13:16.641Z,14.00
2019-05-29T17:15:45.692Z,14.00
2019-05-29T17:18:14.771Z,14.00
2019-05-29T17:20:44.913Z,13.90
2019-05-29T17:23:15.313Z,13.90
2019-05-29T17:25:44.542Z,13.80
2019-05-29T17:28:14.833Z,13.70
2019-05-29T17:30:44.218Z,13.70
2019-05-29T17:33:13.208Z,13.70
2019-05-29T17:35:42.401Z,13.60
2019-05-29T17:38:11.469Z,13.50
2019-05-29T17:40:40.480Z,13.50
2019-05-29T17:43:09.509Z,13.40
2019-05-29T17:45:38.437Z,13.30
2019-05-29T17:48:07.543Z,13.30
2019-05-29T17:50:36.402Z,13.30
2019-05-29T17:53:05.348Z,13.20
2019-05-29T17:55:34.628Z,13.20
2019-05-29T17:58:03.729Z,13.20
2019-05-29T18:00:32.750Z,13.20
2019-05-29T18:03:01.997Z,13.10
2019-05-29T18:05:31.245Z,13.00
2019-05-29T18:08:01.879Z,13.00
2019-05-29T18:10:31.337Z,13.00
2019-05-29T18:13:00.321Z,13.00
2019-05-29T18:15:29.324Z,13.00
2019-05-29T18:17:58.759Z,13.00
2019-05-29T18:20:27.936Z,12.90
2019-05-29T18:22:56.957Z,12.90
2019-05-29T18:25:26.064Z,12.90
2019-05-29T18:27:55.264Z,12.90
2019-05-29T18:30:24.458Z,12.80
2019-05-29T18:32:53.473Z,12.80
2019-05-29T18:35:23.050Z,12.70
2019-05-29T18:37:52.046Z,12.70
2019-05-29T18:40:22.312Z,12.60
2019-05-29T18:42:51.675Z,12.50
2019-05-29T18:45:24.257Z,12.40
2019-05-29T18:47:52.034Z,12.30
2019-05-29T18:50:21.574Z,12.30
2019-05-29T18:52:51.055Z,12.20
2019-05-29T18:55:20.777Z,12.20
2019-05-29T18:57:49.937Z,12.10
2019-05-29T19:00:19.258Z,12.00
2019-05-29T19:02:48.541Z,12.00
2019-05-29T19:05:17.844Z,12.00
2019-05-29T19:07:46.869Z,11.90
2019-05-29T19:10:15.869Z,11.90
2019-05-29T19:12:44.884Z,11.90
2019-05-29T19:15:14.390Z,11.80
2019-05-29T19:17:43.410Z,11.80
2019-05-29T19:20:13.889Z,11.70
2019-05-29T19:22:43.148Z,11.70
2019-05-29T19:25:12.253Z,11.60
2019-05-29T19:27:42.274Z,11.50
2019-05-29T19:30:12.077Z,11.50
2019-05-29T19:32:41.158Z,11.50
2019-05-29T19:35:10.553Z,11.40
2019-05-29T19:37:39.564Z,11.40
2019-05-29T19:43:40.902Z,11.30
2019-05-29T19:46:09.916Z,11.30
2019-05-29T19:48:39.162Z,11.30
2019-05-29T19:51:08.191Z,11.30
2019-05-29T19:53:37.219Z,11.30
2019-05-29T19:56:06.242Z,11.30
2019-05-29T19:58:36.215Z,11.20
2019-05-29T20:01:05.469Z,11.20
2019-05-29T20:03:34.698Z,11.20
2019-05-29T20:06:03.731Z,11.20
2019-05-29T20:08:35.877Z,11.20
2019-05-29T20:11:03.882Z,11.20
2019-05-29T20:17:14.060Z,11.10
2019-05-29T20:19:43.060Z,11.10
2019-05-29T20:22:11.971Z,11.10
2019-05-29T20:24:40.993Z,11.10
2019-05-29T20:27:09.930Z,11.00
2019-05-29T20:29:38.883Z,11.00
2019-05-29T20:32:07.965Z,11.00
2019-05-29T20:34:36.969Z,11.00
2019-05-29T20:37:05.951Z,11.00
2019-05-29T20:39:36.244Z,10.90
2019-05-29T20:42:05.450Z,11.00
2019-05-29T20:44:34.576Z,10.90
2019-05-29T20:50:48.820Z,10.90
2019-05-29T20:53:18.313Z,10.90
2019-05-29T20:55:47.175Z,10.90
2019-05-29T20:58:24.717Z,10.90
2019-05-29T21:00:46.683Z,10.80
2019-05-29T21:03:15.636Z,10.80
2019-05-29T21:05:44.521Z,10.80
2019-05-29T21:08:13.343Z,10.70
2019-05-29T21:10:43.522Z,10.70
2019-05-29T21:13:12.612Z,10.70
2019-05-29T21:15:41.861Z,10.70
2019-05-29T21:18:11.001Z,10.60
2019-05-29T21:20:40.486Z,10.60
2019-05-29T21:23:09.509Z,10.60
2019-05-29T21:25:38.721Z,10.60
2019-05-29T21:28:07.879Z,10.60
2019-05-29T21:30:37.436Z,10.50
2019-05-29T21:33:06.691Z,10.50
2019-05-29T21:35:36.051Z,10.50
2019-05-29T21:38:05.075Z,10.50
2019-05-29T21:40:33.975Z,10.40
2019-05-29T21:43:02.800Z,10.40
2019-05-29T21:45:31.606Z,10.40
2019-05-29T21:48:00.507Z,10.40
2019-05-29T21:50:29.411Z,10.30
2019-05-29T21:52:58.232Z,10.30
2019-05-29T21:55:27.131Z,10.30
2019-05-29T21:57:56.374Z,10.30
2019-05-29T22:00:35.338Z,10.20
2019-05-29T22:03:04.565Z,10.20
2019-05-29T22:05:33.531Z,10.20
2019-05-29T22:08:02.665Z,10.20
2019-05-29T22:10:31.578Z,10.20
2019-05-29T22:13:01.378Z,10.20
2019-05-29T22:15:30.344Z,10.20
2019-05-29T22:17:59.272Z,10.20
2019-05-29T22:20:28.133Z,10.20
2019-05-29T22:22:57.243Z,10.20
2019-05-29T22:25:26.162Z,10.20
2019-05-29T22:27:55.587Z,10.20
2019-05-29T22:30:24.688Z,10.20
2019-05-29T22:32:53.494Z,10.20
2019-05-29T22:35:22.631Z,10.20
2019-05-29T22:37:51.588Z,10.10
2019-05-29T22:40:21.126Z,10.10
2019-05-29T22:42:49.938Z,10.10
2019-05-29T22:45:18.923Z,10.10
2019-05-29T22:47:47.823Z,10.10
2019-05-29T22:50:16.803Z,10.00
2019-05-29T22:52:45.738Z,10.00
2019-05-29T22:55:14.742Z,10.00
2019-05-29T22:57:43.622Z,10.00
2019-05-29T23:00:13.876Z,10.00
2019-05-29T23:02:43.001Z,10.00
2019-05-29T23:05:12.041Z,9.90
2019-05-29T23:07:40.854Z,9.90
2019-05-29T23:10:10.049Z,9.90
2019-05-29T23:12:39.230Z,9.90
2019-05-29T23:15:08.314Z,9.90
2019-05-29T23:17:37.276Z,9.80
2019-05-29T23:20:06.410Z,9.80
2019-05-29T23:22:35.527Z,9.70
2019-05-29T23:25:04.499Z,9.70
2019-05-29T23:27:33.305Z,9.60
2019-05-29T23:30:03.376Z,9.60
2019-05-29T23:32:32.467Z,9.50
2019-05-29T23:35:01.398Z,9.50
2019-05-29T23:37:30.507Z,9.40
2019-05-29T23:39:59.360Z,9.30
2019-05-29T23:42:28.309Z,9.20
2019-05-29T23:44:57.625Z,9.10
2019-05-29T23:47:26.541Z,9.00
2019-05-29T23:49:55.575Z,8.90
2019-05-29T23:52:24.997Z,8.80
2019-05-29T23:54:53.994Z,8.70
2019-05-29T23:57:22.893Z,8.50
